sensor_id;sensor_type;location;lat;lon;timestamp;P1;durP1;ratioP1;P2;durP2;ratioP2
77430;SDS011;66498;48.564;19.272;2023-07-13T00:00:17;10.18;;;8.23;;
77430;SDS011;66498;48.564;19.272;2023-07-13T00:02:43;11.93;;;8.38;;
77430;SDS011;66498;48.564;19.272;2023-07-13T00:05:08;11.40;;;8.50;;
77430;SDS011;66498;48.564;19.272;2023-07-13T00:07:35;11.23;;;8.43;;
77430;SDS011;66498;48.564;19.272;2023-07-13T00:10:01;12.02;;;8.55;;
77430;SDS011;66498;48.564;19.272;2023-07-13T00:12:34;11.23;;;8.18;;
77430;SDS011;66498;48.564;19.272;2023-07-13T00:15:03;12.70;;;8.77;;
77430;SDS011;66498;48.564;19.272;2023-07-13T00:17:32;11.80;;;8.73;;
77430;SDS011;66498;48.564;19.272;2023-07-13T00:19:57;12.40;;;9.63;;
77430;SDS011;66498;48.564;19.272;2023-07-13T00:22:24;12.95;;;9.75;;
77430;SDS011;66498;48.564;19.272;2023-07-13T00:24:51;13.77;;;11.20;;
77430;SDS011;66498;48.564;19.272;2023-07-13T00:27:18;13.43;;;10.30;;
77430;SDS011;66498;48.564;19.272;2023-07-13T00:29:43;15.43;;;9.30;;
77430;SDS011;66498;48.564;19.272;2023-07-13T00:32:09;14.38;;;9.30;;
77430;SDS011;66498;48.564;19.272;2023-07-13T00:34:37;12.48;;;9.23;;
77430;SDS011;66498;48.564;19.272;2023-07-13T00:37:03;18.48;;;9.38;;
77430;SDS011;66498;48.564;19.272;2023-07-13T00:39:31;15.95;;;8.88;;
77430;SDS011;66498;48.564;19.272;2023-07-13T00:41:57;13.23;;;9.02;;
77430;SDS011;66498;48.564;19.272;2023-07-13T00:44:23;12.65;;;8.35;;
77430;SDS011;66498;48.564;19.272;2023-07-13T00:46:48;12.13;;;8.88;;
77430;SDS011;66498;48.564;19.272;2023-07-13T00:49:15;11.27;;;8.77;;
77430;SDS011;66498;48.564;19.272;2023-07-13T00:51:51;15.63;;;8.93;;
77430;SDS011;66498;48.564;19.272;2023-07-13T00:54:19;11.68;;;8.75;;
77430;SDS011;66498;48.564;19.272;2023-07-13T00:56:48;15.98;;;9.25;;
77430;SDS011;66498;48.564;19.272;2023-07-13T00:59:16;13.50;;;9.52;;
77430;SDS011;66498;48.564;19.272;2023-07-13T01:01:44;15.10;;;9.55;;
77430;SDS011;66498;48.564;19.272;2023-07-13T01:04:10;13.00;;;9.25;;
77430;SDS011;66498;48.564;19.272;2023-07-13T01:06:36;15.80;;;9.18;;
77430;SDS011;66498;48.564;19.272;2023-07-13T01:09:03;12.10;;;8.90;;
77430;SDS011;66498;48.564;19.272;2023-07-13T01:11:29;13.43;;;8.20;;
77430;SDS011;66498;48.564;19.272;2023-07-13T01:13:54;13.30;;;8.85;;
77430;SDS011;66498;48.564;19.272;2023-07-13T01:16:31;12.48;;;8.07;;
77430;SDS011;66498;48.564;19.272;2023-07-13T01:18:58;13.60;;;8.02;;
77430;SDS011;66498;48.564;19.272;2023-07-13T01:21:26;13.25;;;9.20;;
77430;SDS011;66498;48.564;19.272;2023-07-13T01:23:53;13.88;;;10.05;;
77430;SDS011;66498;48.564;19.272;2023-07-13T01:26:19;13.52;;;8.95;;
77430;SDS011;66498;48.564;19.272;2023-07-13T01:28:44;15.45;;;9.77;;
77430;SDS011;66498;48.564;19.272;2023-07-13T01:31:10;13.07;;;9.77;;
77430;SDS011;66498;48.564;19.272;2023-07-13T01:33:37;15.13;;;9.73;;
77430;SDS011;66498;48.564;19.272;2023-07-13T01:36:05;12.85;;;10.20;;
77430;SDS011;66498;48.564;19.272;2023-07-13T01:38:34;15.45;;;9.25;;
77430;SDS011;66498;48.564;19.272;2023-07-13T01:41:00;14.48;;;9.63;;
77430;SDS011;66498;48.564;19.272;2023-07-13T01:43:26;13.98;;;9.02;;
77430;SDS011;66498;48.564;19.272;2023-07-13T01:45:51;13.70;;;9.20;;
77430;SDS011;66498;48.564;19.272;2023-07-13T01:48:17;13.07;;;9.15;;
77430;SDS011;66498;48.564;19.272;2023-07-13T01:50:42;11.98;;;9.60;;
77430;SDS011;66498;48.564;19.272;2023-07-13T01:53:08;13.23;;;9.32;;
77430;SDS011;66498;48.564;19.272;2023-07-13T01:55:34;13.68;;;9.05;;
77430;SDS011;66498;48.564;19.272;2023-07-13T01:58:01;11.43;;;9.32;;
77430;SDS011;66498;48.564;19.272;2023-07-13T02:00:26;12.55;;;8.93;;
77430;SDS011;66498;48.564;19.272;2023-07-13T02:02:52;13.38;;;9.07;;
77430;SDS011;66498;48.564;19.272;2023-07-13T02:05:17;12.98;;;9.18;;
77430;SDS011;66498;48.564;19.272;2023-07-13T02:07:44;11.93;;;9.23;;
77430;SDS011;66498;48.564;19.272;2023-07-13T02:10:10;11.55;;;9.07;;
77430;SDS011;66498;48.564;19.272;2023-07-13T02:12:36;11.52;;;9.18;;
77430;SDS011;66498;48.564;19.272;2023-07-13T02:15:02;14.10;;;9.60;;
77430;SDS011;66498;48.564;19.272;2023-07-13T02:17:28;11.75;;;8.65;;
77430;SDS011;66498;48.564;19.272;2023-07-13T02:19:54;10.32;;;8.48;;
77430;SDS011;66498;48.564;19.272;2023-07-13T02:22:20;12.07;;;8.48;;
77430;SDS011;66498;48.564;19.272;2023-07-13T02:24:46;12.02;;;8.40;;
77430;SDS011;66498;48.564;19.272;2023-07-13T02:27:11;11.30;;;8.77;;
77430;SDS011;66498;48.564;19.272;2023-07-13T02:29:37;11.80;;;8.45;;
77430;SDS011;66498;48.564;19.272;2023-07-13T02:32:02;15.00;;;8.68;;
77430;SDS011;66498;48.564;19.272;2023-07-13T02:34:28;12.15;;;8.48;;
77430;SDS011;66498;48.564;19.272;2023-07-13T02:36:54;13.05;;;9.40;;
77430;SDS011;66498;48.564;19.272;2023-07-13T02:39:19;11.93;;;9.35;;
77430;SDS011;66498;48.564;19.272;2023-07-13T02:41:44;12.45;;;8.63;;
77430;SDS011;66498;48.564;19.272;2023-07-13T02:44:12;13.85;;;8.80;;
77430;SDS011;66498;48.564;19.272;2023-07-13T02:46:38;14.15;;;9.18;;
77430;SDS011;66498;48.564;19.272;2023-07-13T02:49:03;10.55;;;7.85;;
77430;SDS011;66498;48.564;19.272;2023-07-13T02:51:29;12.13;;;7.97;;
77430;SDS011;66498;48.564;19.272;2023-07-13T02:53:55;12.43;;;7.40;;
77430;SDS011;66498;48.564;19.272;2023-07-13T02:56:22;11.88;;;7.53;;
77430;SDS011;66498;48.564;19.272;2023-07-13T02:58:49;11.52;;;7.63;;
77430;SDS011;66498;48.564;19.272;2023-07-13T03:01:14;13.10;;;7.80;;
77430;SDS011;66498;48.564;19.272;2023-07-13T03:03:43;8.85;;;7.25;;
77430;SDS011;66498;48.564;19.272;2023-07-13T03:06:08;12.70;;;7.28;;
77430;SDS011;66498;48.564;19.272;2023-07-13T03:08:34;10.30;;;7.47;;
77430;SDS011;66498;48.564;19.272;2023-07-13T03:11:05;9.60;;;7.38;;
77430;SDS011;66498;48.564;19.272;2023-07-13T03:13:32;11.02;;;7.75;;
77430;SDS011;66498;48.564;19.272;2023-07-13T03:15:58;10.73;;;8.27;;
77430;SDS011;66498;48.564;19.272;2023-07-13T03:18:25;11.48;;;8.05;;
77430;SDS011;66498;48.564;19.272;2023-07-13T03:20:52;13.63;;;8.75;;
77430;SDS011;66498;48.564;19.272;2023-07-13T03:23:18;11.77;;;8.70;;
77430;SDS011;66498;48.564;19.272;2023-07-13T03:25:44;12.05;;;8.85;;
77430;SDS011;66498;48.564;19.272;2023-07-13T03:28:13;12.30;;;8.45;;
77430;SDS011;66498;48.564;19.272;2023-07-13T03:30:40;14.43;;;9.50;;
77430;SDS011;66498;48.564;19.272;2023-07-13T03:33:06;16.58;;;10.25;;
77430;SDS011;66498;48.564;19.272;2023-07-13T03:35:34;20.10;;;10.93;;
77430;SDS011;66498;48.564;19.272;2023-07-13T03:38:00;18.58;;;11.70;;
77430;SDS011;66498;48.564;19.272;2023-07-13T03:40:27;18.88;;;11.50;;
77430;SDS011;66498;48.564;19.272;2023-07-13T03:42:53;17.52;;;11.73;;
77430;SDS011;66498;48.564;19.272;2023-07-13T03:45:19;19.52;;;11.23;;
77430;SDS011;66498;48.564;19.272;2023-07-13T03:47:44;22.48;;;12.57;;
77430;SDS011;66498;48.564;19.272;2023-07-13T03:50:10;18.85;;;11.98;;
77430;SDS011;66498;48.564;19.272;2023-07-13T03:52:35;16.63;;;11.10;;
77430;SDS011;66498;48.564;19.272;2023-07-13T03:55:01;14.70;;;11.10;;
77430;SDS011;66498;48.564;19.272;2023-07-13T03:57:27;15.90;;;10.60;;
77430;SDS011;66498;48.564;19.272;2023-07-13T03:59:52;14.68;;;10.88;;
77430;SDS011;66498;48.564;19.272;2023-07-13T04:02:18;15.73;;;10.30;;
77430;SDS011;66498;48.564;19.272;2023-07-13T04:04:44;17.90;;;10.57;;
77430;SDS011;66498;48.564;19.272;2023-07-13T04:07:10;16.50;;;10.45;;
77430;SDS011;66498;48.564;19.272;2023-07-13T04:09:35;15.35;;;9.98;;
77430;SDS011;66498;48.564;19.272;2023-07-13T04:12:01;15.93;;;10.70;;
77430;SDS011;66498;48.564;19.272;2023-07-13T04:14:27;15.32;;;9.98;;
77430;SDS011;66498;48.564;19.272;2023-07-13T04:16:55;18.17;;;10.25;;
77430;SDS011;66498;48.564;19.272;2023-07-13T04:19:21;17.85;;;10.50;;
77430;SDS011;66498;48.564;19.272;2023-07-13T04:21:46;14.82;;;10.57;;
77430;SDS011;66498;48.564;19.272;2023-07-13T04:24:12;12.63;;;10.30;;
77430;SDS011;66498;48.564;19.272;2023-07-13T04:26:38;15.85;;;10.80;;
77430;SDS011;66498;48.564;19.272;2023-07-13T04:29:05;16.92;;;10.00;;
77430;SDS011;66498;48.564;19.272;2023-07-13T04:31:31;17.25;;;11.20;;
77430;SDS011;66498;48.564;19.272;2023-07-13T04:33:57;15.55;;;10.02;;
77430;SDS011;66498;48.564;19.272;2023-07-13T04:36:23;14.27;;;10.85;;
77430;SDS011;66498;48.564;19.272;2023-07-13T04:38:52;12.45;;;9.95;;
77430;SDS011;66498;48.564;19.272;2023-07-13T04:41:19;13.60;;;9.65;;
77430;SDS011;66498;48.564;19.272;2023-07-13T04:43:46;11.57;;;9.98;;
77430;SDS011;66498;48.564;19.272;2023-07-13T04:46:12;15.88;;;10.48;;
77430;SDS011;66498;48.564;19.272;2023-07-13T04:48:39;16.10;;;10.35;;
77430;SDS011;66498;48.564;19.272;2023-07-13T04:51:05;13.75;;;10.35;;
77430;SDS011;66498;48.564;19.272;2023-07-13T04:53:30;12.82;;;10.20;;
77430;SDS011;66498;48.564;19.272;2023-07-13T04:55:57;17.38;;;9.85;;
77430;SDS011;66498;48.564;19.272;2023-07-13T04:58:23;11.40;;;8.90;;
77430;SDS011;66498;48.564;19.272;2023-07-13T05:00:49;13.00;;;9.23;;
77430;SDS011;66498;48.564;19.272;2023-07-13T05:03:15;12.32;;;9.40;;
77430;SDS011;66498;48.564;19.272;2023-07-13T05:05:40;12.93;;;9.48;;
77430;SDS011;66498;48.564;19.272;2023-07-13T05:08:06;14.43;;;9.63;;
77430;SDS011;66498;48.564;19.272;2023-07-13T05:10:32;13.13;;;8.57;;
77430;SDS011;66498;48.564;19.272;2023-07-13T05:12:59;10.48;;;8.43;;
77430;SDS011;66498;48.564;19.272;2023-07-13T05:15:24;11.27;;;9.18;;
77430;SDS011;66498;48.564;19.272;2023-07-13T05:17:50;11.88;;;8.30;;
77430;SDS011;66498;48.564;19.272;2023-07-13T05:20:16;12.35;;;8.20;;
77430;SDS011;66498;48.564;19.272;2023-07-13T05:22:43;9.52;;;7.70;;
77430;SDS011;66498;48.564;19.272;2023-07-13T05:25:09;12.40;;;8.15;;
77430;SDS011;66498;48.564;19.272;2023-07-13T05:27:35;11.80;;;8.35;;
77430;SDS011;66498;48.564;19.272;2023-07-13T05:30:01;13.10;;;7.90;;
77430;SDS011;66498;48.564;19.272;2023-07-13T05:32:28;13.07;;;8.52;;
77430;SDS011;66498;48.564;19.272;2023-07-13T05:34:54;13.52;;;7.90;;
77430;SDS011;66498;48.564;19.272;2023-07-13T05:37:19;10.82;;;7.93;;
77430;SDS011;66498;48.564;19.272;2023-07-13T05:39:45;14.13;;;7.70;;
77430;SDS011;66498;48.564;19.272;2023-07-13T05:42:10;13.88;;;7.88;;
77430;SDS011;66498;48.564;19.272;2023-07-13T05:44:36;14.30;;;8.85;;
77430;SDS011;66498;48.564;19.272;2023-07-13T05:47:01;11.50;;;7.22;;
77430;SDS011;66498;48.564;19.272;2023-07-13T05:49:27;13.75;;;7.57;;
77430;SDS011;66498;48.564;19.272;2023-07-13T05:51:54;11.70;;;7.68;;
77430;SDS011;66498;48.564;19.272;2023-07-13T05:54:19;9.85;;;7.32;;
77430;SDS011;66498;48.564;19.272;2023-07-13T05:56:45;12.98;;;7.10;;
77430;SDS011;66498;48.564;19.272;2023-07-13T05:59:11;10.20;;;7.57;;
77430;SDS011;66498;48.564;19.272;2023-07-13T06:01:37;10.32;;;7.78;;
77430;SDS011;66498;48.564;19.272;2023-07-13T06:04:02;9.77;;;7.40;;
77430;SDS011;66498;48.564;19.272;2023-07-13T06:06:28;11.38;;;8.57;;
77430;SDS011;66498;48.564;19.272;2023-07-13T06:08:54;11.63;;;8.35;;
77430;SDS011;66498;48.564;19.272;2023-07-13T06:11:20;11.85;;;7.15;;
77430;SDS011;66498;48.564;19.272;2023-07-13T06:13:48;10.77;;;7.60;;
77430;SDS011;66498;48.564;19.272;2023-07-13T06:16:14;10.13;;;7.88;;
77430;SDS011;66498;48.564;19.272;2023-07-13T06:18:40;10.27;;;6.97;;
77430;SDS011;66498;48.564;19.272;2023-07-13T06:21:07;11.60;;;7.32;;
77430;SDS011;66498;48.564;19.272;2023-07-13T06:23:37;12.13;;;7.90;;
77430;SDS011;66498;48.564;19.272;2023-07-13T06:26:03;9.05;;;7.00;;
77430;SDS011;66498;48.564;19.272;2023-07-13T06:28:29;10.60;;;7.15;;
77430;SDS011;66498;48.564;19.272;2023-07-13T06:30:56;11.20;;;7.35;;
77430;SDS011;66498;48.564;19.272;2023-07-13T06:33:22;13.38;;;7.95;;
77430;SDS011;66498;48.564;19.272;2023-07-13T06:35:48;9.68;;;7.75;;
77430;SDS011;66498;48.564;19.272;2023-07-13T06:38:13;12.10;;;7.32;;
77430;SDS011;66498;48.564;19.272;2023-07-13T06:40:39;9.52;;;7.30;;
77430;SDS011;66498;48.564;19.272;2023-07-13T06:43:04;10.80;;;7.03;;
77430;SDS011;66498;48.564;19.272;2023-07-13T06:45:30;12.13;;;6.78;;
77430;SDS011;66498;48.564;19.272;2023-07-13T06:48:00;6.38;;;4.70;;
77430;SDS011;66498;48.564;19.272;2023-07-13T06:50:26;5.32;;;3.90;;
77430;SDS011;66498;48.564;19.272;2023-07-13T06:52:51;7.20;;;4.53;;
77430;SDS011;66498;48.564;19.272;2023-07-13T06:55:17;9.18;;;4.10;;
77430;SDS011;66498;48.564;19.272;2023-07-13T06:57:43;6.47;;;4.10;;
77430;SDS011;66498;48.564;19.272;2023-07-13T07:00:08;8.07;;;3.72;;
77430;SDS011;66498;48.564;19.272;2023-07-13T07:02:35;6.65;;;4.10;;
77430;SDS011;66498;48.564;19.272;2023-07-13T07:05:00;7.00;;;4.25;;
77430;SDS011;66498;48.564;19.272;2023-07-13T07:07:26;7.40;;;4.10;;
77430;SDS011;66498;48.564;19.272;2023-07-13T07:09:51;7.20;;;3.85;;
77430;SDS011;66498;48.564;19.272;2023-07-13T07:12:17;6.40;;;3.80;;
77430;SDS011;66498;48.564;19.272;2023-07-13T07:14:42;4.68;;;3.80;;
77430;SDS011;66498;48.564;19.272;2023-07-13T07:17:08;7.35;;;4.00;;
77430;SDS011;66498;48.564;19.272;2023-07-13T07:19:34;6.68;;;4.20;;
77430;SDS011;66498;48.564;19.272;2023-07-13T07:22:00;6.32;;;4.13;;
77430;SDS011;66498;48.564;19.272;2023-07-13T07:24:25;9.13;;;5.03;;
77430;SDS011;66498;48.564;19.272;2023-07-13T07:26:51;11.95;;;5.68;;
77430;SDS011;66498;48.564;19.272;2023-07-13T07:29:17;9.77;;;5.60;;
77430;SDS011;66498;48.564;19.272;2023-07-13T07:31:42;10.88;;;5.10;;
77430;SDS011;66498;48.564;19.272;2023-07-13T07:34:08;11.27;;;5.88;;
77430;SDS011;66498;48.564;19.272;2023-07-13T07:36:34;7.93;;;4.95;;
77430;SDS011;66498;48.564;19.272;2023-07-13T07:38:59;7.15;;;4.43;;
77430;SDS011;66498;48.564;19.272;2023-07-13T07:41:25;7.93;;;4.18;;
77430;SDS011;66498;48.564;19.272;2023-07-13T07:43:50;8.77;;;6.35;;
77430;SDS011;66498;48.564;19.272;2023-07-13T07:46:16;11.80;;;6.03;;
77430;SDS011;66498;48.564;19.272;2023-07-13T07:48:41;9.70;;;6.38;;
77430;SDS011;66498;48.564;19.272;2023-07-13T07:51:07;9.85;;;7.15;;
77430;SDS011;66498;48.564;19.272;2023-07-13T07:53:32;14.50;;;7.88;;
77430;SDS011;66498;48.564;19.272;2023-07-13T07:55:58;11.05;;;7.70;;
77430;SDS011;66498;48.564;19.272;2023-07-13T07:58:23;10.40;;;7.25;;
77430;SDS011;66498;48.564;19.272;2023-07-13T08:00:49;8.45;;;6.10;;
77430;SDS011;66498;48.564;19.272;2023-07-13T08:03:15;7.07;;;4.97;;
77430;SDS011;66498;48.564;19.272;2023-07-13T08:05:40;8.40;;;6.00;;
77430;SDS011;66498;48.564;19.272;2023-07-13T08:08:06;8.63;;;6.20;;
77430;SDS011;66498;48.564;19.272;2023-07-13T08:10:34;11.52;;;5.97;;
77430;SDS011;66498;48.564;19.272;2023-07-13T08:13:01;8.95;;;6.13;;
77430;SDS011;66498;48.564;19.272;2023-07-13T08:15:27;9.60;;;5.75;;
77430;SDS011;66498;48.564;19.272;2023-07-13T08:17:53;8.13;;;6.35;;
77430;SDS011;66498;48.564;19.272;2023-07-13T08:20:21;10.23;;;7.63;;
77430;SDS011;66498;48.564;19.272;2023-07-13T08:22:47;8.85;;;6.72;;
77430;SDS011;66498;48.564;19.272;2023-07-13T08:25:12;7.45;;;6.45;;
77430;SDS011;66498;48.564;19.272;2023-07-13T08:27:38;10.75;;;6.88;;
77430;SDS011;66498;48.564;19.272;2023-07-13T08:30:04;10.20;;;6.63;;
77430;SDS011;66498;48.564;19.272;2023-07-13T08:32:30;8.20;;;6.63;;
77430;SDS011;66498;48.564;19.272;2023-07-13T08:34:56;10.18;;;6.78;;
77430;SDS011;66498;48.564;19.272;2023-07-13T08:37:21;9.57;;;6.07;;
77430;SDS011;66498;48.564;19.272;2023-07-13T08:39:47;9.45;;;5.63;;
77430;SDS011;66498;48.564;19.272;2023-07-13T08:42:21;6.60;;;5.20;;
77430;SDS011;66498;48.564;19.272;2023-07-13T08:47:51;7.40;;;5.03;;
77430;SDS011;66498;48.564;19.272;2023-07-13T08:50:52;7.97;;;5.10;;
77430;SDS011;66498;48.564;19.272;2023-07-13T08:53:40;8.10;;;4.88;;
77430;SDS011;66498;48.564;19.272;2023-07-13T08:56:19;5.97;;;4.68;;
77430;SDS011;66498;48.564;19.272;2023-07-13T08:58:48;6.80;;;5.30;;
77430;SDS011;66498;48.564;19.272;2023-07-13T09:04:14;7.43;;;5.80;;
77430;SDS011;66498;48.564;19.272;2023-07-13T09:10:16;8.10;;;5.75;;
77430;SDS011;66498;48.564;19.272;2023-07-13T09:18:05;7.13;;;4.28;;
77430;SDS011;66498;48.564;19.272;2023-07-13T09:20:37;7.00;;;4.07;;
77430;SDS011;66498;48.564;19.272;2023-07-13T09:23:17;5.50;;;3.95;;
77430;SDS011;66498;48.564;19.272;2023-07-13T09:25:50;6.15;;;4.38;;
77430;SDS011;66498;48.564;19.272;2023-07-13T09:28:28;5.22;;;4.22;;
77430;SDS011;66498;48.564;19.272;2023-07-13T09:31:13;4.70;;;3.60;;
77430;SDS011;66498;48.564;19.272;2023-07-13T09:33:42;5.07;;;4.15;;
77430;SDS011;66498;48.564;19.272;2023-07-13T09:38:49;6.85;;;4.20;;
77430;SDS011;66498;48.564;19.272;2023-07-13T09:41:27;8.05;;;4.50;;
77430;SDS011;66498;48.564;19.272;2023-07-13T09:46:47;7.15;;;4.05;;
77430;SDS011;66498;48.564;19.272;2023-07-13T09:49:17;7.05;;;3.70;;
77430;SDS011;66498;48.564;19.272;2023-07-13T09:51:43;5.28;;;4.07;;
77430;SDS011;66498;48.564;19.272;2023-07-13T09:54:19;6.78;;;3.80;;
77430;SDS011;66498;48.564;19.272;2023-07-13T09:56:53;5.93;;;4.05;;
77430;SDS011;66498;48.564;19.272;2023-07-13T09:59:21;5.60;;;3.90;;
77430;SDS011;66498;48.564;19.272;2023-07-13T10:01:49;5.55;;;4.05;;
77430;SDS011;66498;48.564;19.272;2023-07-13T10:04:17;4.93;;;3.45;;
77430;SDS011;66498;48.564;19.272;2023-07-13T10:06:44;5.38;;;3.40;;
77430;SDS011;66498;48.564;19.272;2023-07-13T10:09:14;5.65;;;3.35;;
77430;SDS011;66498;48.564;19.272;2023-07-13T10:11:41;5.13;;;3.38;;
77430;SDS011;66498;48.564;19.272;2023-07-13T10:16:46;5.05;;;3.47;;
77430;SDS011;66498;48.564;19.272;2023-07-13T10:19:13;7.28;;;3.83;;
77430;SDS011;66498;48.564;19.272;2023-07-13T10:21:56;5.85;;;3.67;;
77430;SDS011;66498;48.564;19.272;2023-07-13T10:24:27;7.47;;;3.90;;
77430;SDS011;66498;48.564;19.272;2023-07-13T10:27:05;4.75;;;3.65;;
77430;SDS011;66498;48.564;19.272;2023-07-13T10:29:43;5.18;;;3.63;;
77430;SDS011;66498;48.564;19.272;2023-07-13T10:32:11;6.18;;;3.70;;
77430;SDS011;66498;48.564;19.272;2023-07-13T10:34:38;5.10;;;3.90;;
77430;SDS011;66498;48.564;19.272;2023-07-13T10:37:05;5.25;;;3.50;;
77430;SDS011;66498;48.564;19.272;2023-07-13T10:39:39;5.18;;;3.80;;
77430;SDS011;66498;48.564;19.272;2023-07-13T10:42:06;4.65;;;3.20;;
77430;SDS011;66498;48.564;19.272;2023-07-13T10:44:39;5.30;;;3.90;;
77430;SDS011;66498;48.564;19.272;2023-07-13T10:47:06;5.57;;;3.42;;
77430;SDS011;66498;48.564;19.272;2023-07-13T10:49:37;5.68;;;3.72;;
77430;SDS011;66498;48.564;19.272;2023-07-13T10:52:04;4.28;;;3.58;;
77430;SDS011;66498;48.564;19.272;2023-07-13T10:54:33;5.25;;;3.70;;
77430;SDS011;66498;48.564;19.272;2023-07-13T10:59:48;7.30;;;3.78;;
77430;SDS011;66498;48.564;19.272;2023-07-13T11:02:34;5.72;;;3.50;;
77430;SDS011;66498;48.564;19.272;2023-07-13T11:05:01;6.45;;;4.15;;
77430;SDS011;66498;48.564;19.272;2023-07-13T11:07:52;7.43;;;3.80;;
77430;SDS011;66498;48.564;19.272;2023-07-13T11:16:00;6.07;;;3.55;;
77430;SDS011;66498;48.564;19.272;2023-07-13T11:18:25;6.47;;;3.17;;
77430;SDS011;66498;48.564;19.272;2023-07-13T11:20:51;7.20;;;3.40;;
77430;SDS011;66498;48.564;19.272;2023-07-13T11:23:26;4.85;;;3.60;;
77430;SDS011;66498;48.564;19.272;2023-07-13T11:25:53;5.07;;;3.83;;
77430;SDS011;66498;48.564;19.272;2023-07-13T11:28:21;4.72;;;3.85;;
77430;SDS011;66498;48.564;19.272;2023-07-13T11:30:50;4.70;;;3.65;;
77430;SDS011;66498;48.564;19.272;2023-07-13T11:36:12;4.95;;;3.03;;
77430;SDS011;66498;48.564;19.272;2023-07-13T11:38:40;5.07;;;3.50;;
77430;SDS011;66498;48.564;19.272;2023-07-13T11:41:17;5.28;;;3.47;;
77430;SDS011;66498;48.564;19.272;2023-07-13T11:43:49;5.35;;;3.70;;
77430;SDS011;66498;48.564;19.272;2023-07-13T11:46:20;4.10;;;3.10;;
77430;SDS011;66498;48.564;19.272;2023-07-13T11:48:52;5.22;;;3.05;;
77430;SDS011;66498;48.564;19.272;2023-07-13T11:51:22;5.78;;;3.60;;
77430;SDS011;66498;48.564;19.272;2023-07-13T11:53:53;4.53;;;3.58;;
77430;SDS011;66498;48.564;19.272;2023-07-13T11:56:20;8.27;;;3.78;;
77430;SDS011;66498;48.564;19.272;2023-07-13T11:58:51;6.05;;;3.22;;
77430;SDS011;66498;48.564;19.272;2023-07-13T12:01:22;5.53;;;3.38;;
77430;SDS011;66498;48.564;19.272;2023-07-13T12:03:51;3.28;;;2.85;;
77430;SDS011;66498;48.564;19.272;2023-07-13T12:06:31;3.63;;;2.95;;
77430;SDS011;66498;48.564;19.272;2023-07-13T12:09:02;4.63;;;3.30;;
77430;SDS011;66498;48.564;19.272;2023-07-13T12:11:38;4.32;;;3.03;;
77430;SDS011;66498;48.564;19.272;2023-07-13T12:14:06;4.20;;;3.10;;
77430;SDS011;66498;48.564;19.272;2023-07-13T12:16:37;3.97;;;3.03;;
77430;SDS011;66498;48.564;19.272;2023-07-13T12:19:02;5.20;;;3.30;;
77430;SDS011;66498;48.564;19.272;2023-07-13T12:21:32;3.75;;;2.88;;
77430;SDS011;66498;48.564;19.272;2023-07-13T12:24:02;5.72;;;3.17;;
77430;SDS011;66498;48.564;19.272;2023-07-13T12:26:29;5.95;;;3.40;;
77430;SDS011;66498;48.564;19.272;2023-07-13T12:28:56;4.28;;;3.20;;
77430;SDS011;66498;48.564;19.272;2023-07-13T12:36:32;5.93;;;3.70;;
77430;SDS011;66498;48.564;19.272;2023-07-13T12:39:00;5.93;;;3.72;;
77430;SDS011;66498;48.564;19.272;2023-07-13T12:41:35;3.85;;;2.97;;
77430;SDS011;66498;48.564;19.272;2023-07-13T12:44:01;6.28;;;3.10;;
77430;SDS011;66498;48.564;19.272;2023-07-13T12:46:26;3.47;;;2.58;;
77430;SDS011;66498;48.564;19.272;2023-07-13T12:48:54;3.85;;;3.15;;
77430;SDS011;66498;48.564;19.272;2023-07-13T12:51:26;3.80;;;3.10;;
77430;SDS011;66498;48.564;19.272;2023-07-13T12:53:57;3.25;;;2.45;;
77430;SDS011;66498;48.564;19.272;2023-07-13T12:56:30;4.15;;;2.95;;
77430;SDS011;66498;48.564;19.272;2023-07-13T12:59:00;3.90;;;3.00;;
77430;SDS011;66498;48.564;19.272;2023-07-13T13:01:30;6.00;;;3.38;;
77430;SDS011;66498;48.564;19.272;2023-07-13T13:04:00;4.35;;;2.60;;
77430;SDS011;66498;48.564;19.272;2023-07-13T13:06:32;2.58;;;1.92;;
77430;SDS011;66498;48.564;19.272;2023-07-13T13:09:03;3.78;;;2.90;;
77430;SDS011;66498;48.564;19.272;2023-07-13T13:11:29;5.22;;;2.78;;
77430;SDS011;66498;48.564;19.272;2023-07-13T13:13:56;4.90;;;3.13;;
77430;SDS011;66498;48.564;19.272;2023-07-13T13:16:23;4.95;;;3.15;;
77430;SDS011;66498;48.564;19.272;2023-07-13T13:18:52;4.55;;;2.60;;
77430;SDS011;66498;48.564;19.272;2023-07-13T13:21:19;5.03;;;3.53;;
77430;SDS011;66498;48.564;19.272;2023-07-13T13:23:46;3.15;;;2.20;;
77430;SDS011;66498;48.564;19.272;2023-07-13T13:26:12;4.68;;;3.25;;
77430;SDS011;66498;48.564;19.272;2023-07-13T13:28:40;3.85;;;3.00;;
77430;SDS011;66498;48.564;19.272;2023-07-13T13:31:07;5.32;;;3.35;;
77430;SDS011;66498;48.564;19.272;2023-07-13T13:33:39;6.10;;;3.10;;
77430;SDS011;66498;48.564;19.272;2023-07-13T13:36:18;4.72;;;3.25;;
77430;SDS011;66498;48.564;19.272;2023-07-13T13:38:45;3.95;;;2.70;;
77430;SDS011;66498;48.564;19.272;2023-07-13T13:41:12;3.20;;;2.90;;
77430;SDS011;66498;48.564;19.272;2023-07-13T13:43:39;3.50;;;2.92;;
77430;SDS011;66498;48.564;19.272;2023-07-13T13:46:11;4.97;;;3.35;;
77430;SDS011;66498;48.564;19.272;2023-07-13T13:48:40;5.90;;;3.40;;
77430;SDS011;66498;48.564;19.272;2023-07-13T13:51:12;5.03;;;3.65;;
77430;SDS011;66498;48.564;19.272;2023-07-13T13:53:40;4.80;;;3.13;;
77430;SDS011;66498;48.564;19.272;2023-07-13T13:56:05;4.30;;;3.65;;
77430;SDS011;66498;48.564;19.272;2023-07-13T13:58:31;4.50;;;3.40;;
77430;SDS011;66498;48.564;19.272;2023-07-13T14:00:56;5.00;;;3.22;;
77430;SDS011;66498;48.564;19.272;2023-07-13T14:03:23;4.70;;;3.50;;
77430;SDS011;66498;48.564;19.272;2023-07-13T14:05:49;5.40;;;3.70;;
77430;SDS011;66498;48.564;19.272;2023-07-13T14:08:15;5.30;;;3.70;;
77430;SDS011;66498;48.564;19.272;2023-07-13T14:10:43;5.03;;;3.30;;
77430;SDS011;66498;48.564;19.272;2023-07-13T14:13:17;4.30;;;3.17;;
77430;SDS011;66498;48.564;19.272;2023-07-13T14:15:46;4.80;;;3.60;;
77430;SDS011;66498;48.564;19.272;2023-07-13T14:18:12;3.35;;;2.70;;
77430;SDS011;66498;48.564;19.272;2023-07-13T14:20:43;6.47;;;3.55;;
77430;SDS011;66498;48.564;19.272;2023-07-13T14:23:11;4.65;;;3.50;;
77430;SDS011;66498;48.564;19.272;2023-07-13T14:25:38;6.38;;;3.38;;
77430;SDS011;66498;48.564;19.272;2023-07-13T14:28:10;4.10;;;2.55;;
77430;SDS011;66498;48.564;19.272;2023-07-13T14:30:46;5.10;;;2.47;;
77430;SDS011;66498;48.564;19.272;2023-07-13T14:33:12;3.15;;;2.65;;
77430;SDS011;66498;48.564;19.272;2023-07-13T14:35:38;3.92;;;3.25;;
77430;SDS011;66498;48.564;19.272;2023-07-13T14:38:04;8.30;;;3.05;;
77430;SDS011;66498;48.564;19.272;2023-07-13T14:40:33;7.45;;;3.40;;
77430;SDS011;66498;48.564;19.272;2023-07-13T14:42:59;9.98;;;4.32;;
77430;SDS011;66498;48.564;19.272;2023-07-13T14:45:25;9.52;;;5.10;;
77430;SDS011;66498;48.564;19.272;2023-07-13T14:47:51;10.02;;;4.47;;
77430;SDS011;66498;48.564;19.272;2023-07-13T14:50:17;9.73;;;4.43;;
77430;SDS011;66498;48.564;19.272;2023-07-13T14:52:45;6.55;;;4.30;;
77430;SDS011;66498;48.564;19.272;2023-07-13T14:55:13;9.90;;;4.18;;
77430;SDS011;66498;48.564;19.272;2023-07-13T14:57:40;9.77;;;3.78;;
77430;SDS011;66498;48.564;19.272;2023-07-13T15:00:18;7.10;;;4.03;;
77430;SDS011;66498;48.564;19.272;2023-07-13T15:02:53;8.63;;;3.63;;
77430;SDS011;66498;48.564;19.272;2023-07-13T15:05:24;6.28;;;3.72;;
77430;SDS011;66498;48.564;19.272;2023-07-13T15:07:52;5.25;;;3.50;;